sensor_id;sensor_type;location;lat;lon;timestamp;P1;durP1;ratioP1;P2;durP2;ratioP2
54517;SDS011;40423;53.176;6.002;2022-09-29T00:01:32;3.78;;;3.10;;
54517;SDS011;40423;53.176;6.002;2022-09-29T00:03:58;3.28;;;2.72;;
54517;SDS011;40423;53.176;6.002;2022-09-29T00:06:23;5.18;;;3.70;;
54517;SDS011;40423;53.176;6.002;2022-09-29T00:08:49;5.93;;;4.13;;
54517;SDS011;40423;53.176;6.002;2022-09-29T00:11:16;4.75;;;2.95;;
54517;SDS011;40423;53.176;6.002;2022-09-29T00:13:43;4.50;;;3.20;;
54517;SDS011;40423;53.176;6.002;2022-09-29T00:16:10;4.35;;;3.22;;
54517;SDS011;40423;53.176;6.002;2022-09-29T00:18:36;6.70;;;3.72;;
54517;SDS011;40423;53.176;6.002;2022-09-29T00:21:07;5.55;;;4.00;;
54517;SDS011;40423;53.176;6.002;2022-09-29T00:23:35;5.07;;;4.13;;
54517;SDS011;40423;53.176;6.002;2022-09-29T00:26:06;4.50;;;3.90;;
54517;SDS011;40423;53.176;6.002;2022-09-29T00:28:35;4.57;;;3.45;;
54517;SDS011;40423;53.176;6.002;2022-09-29T00:31:02;5.50;;;4.13;;
54517;SDS011;40423;53.176;6.002;2022-09-29T00:33:30;4.75;;;4.28;;
54517;SDS011;40423;53.176;6.002;2022-09-29T00:35:58;4.10;;;3.22;;
54517;SDS011;40423;53.176;6.002;2022-09-29T00:38:29;5.07;;;4.38;;
54517;SDS011;40423;53.176;6.002;2022-09-29T00:40:55;4.85;;;4.10;;
54517;SDS011;40423;53.176;6.002;2022-09-29T00:43:46;7.53;;;5.05;;
54517;SDS011;40423;53.176;6.002;2022-09-29T00:49:07;5.30;;;4.25;;
54517;SDS011;40423;53.176;6.002;2022-09-29T00:51:38;6.72;;;5.30;;
54517;SDS011;40423;53.176;6.002;2022-09-29T00:54:07;5.22;;;4.03;;
54517;SDS011;40423;53.176;6.002;2022-09-29T00:56:35;5.82;;;4.93;;
54517;SDS011;40423;53.176;6.002;2022-09-29T00:59:09;5.55;;;4.57;;
54517;SDS011;40423;53.176;6.002;2022-09-29T01:01:40;5.95;;;4.85;;
54517;SDS011;40423;53.176;6.002;2022-09-29T01:04:15;7.35;;;5.80;;
54517;SDS011;40423;53.176;6.002;2022-09-29T01:06:50;6.10;;;4.63;;
54517;SDS011;40423;53.176;6.002;2022-09-29T01:09:20;6.28;;;5.60;;
54517;SDS011;40423;53.176;6.002;2022-09-29T01:11:51;6.35;;;5.07;;
54517;SDS011;40423;53.176;6.002;2022-09-29T01:14:19;5.97;;;4.50;;
54517;SDS011;40423;53.176;6.002;2022-09-29T01:16:45;4.88;;;4.25;;
54517;SDS011;40423;53.176;6.002;2022-09-29T01:19:54;7.15;;;5.00;;
54517;SDS011;40423;53.176;6.002;2022-09-29T01:25:07;5.45;;;4.45;;
54517;SDS011;40423;53.176;6.002;2022-09-29T01:27:53;4.15;;;3.65;;
54517;SDS011;40423;53.176;6.002;2022-09-29T01:36:04;4.97;;;4.45;;
54517;SDS011;40423;53.176;6.002;2022-09-29T01:39:09;5.20;;;4.03;;
54517;SDS011;40423;53.176;6.002;2022-09-29T01:41:50;6.43;;;4.32;;
54517;SDS011;40423;53.176;6.002;2022-09-29T01:47:09;4.82;;;3.85;;
54517;SDS011;40423;53.176;6.002;2022-09-29T01:49:37;5.95;;;4.47;;
54517;SDS011;40423;53.176;6.002;2022-09-29T01:52:08;5.00;;;4.10;;
54517;SDS011;40423;53.176;6.002;2022-09-29T01:54:51;5.90;;;4.03;;
54517;SDS011;40423;53.176;6.002;2022-09-29T01:57:26;6.55;;;4.40;;
54517;SDS011;40423;53.176;6.002;2022-09-29T02:00:14;4.30;;;3.70;;
54517;SDS011;40423;53.176;6.002;2022-09-29T02:05:18;4.63;;;3.70;;
54517;SDS011;40423;53.176;6.002;2022-09-29T02:07:50;5.25;;;3.17;;
54517;SDS011;40423;53.176;6.002;2022-09-29T02:10:21;4.10;;;3.70;;
54517;SDS011;40423;53.176;6.002;2022-09-29T02:12:52;5.82;;;4.40;;
54517;SDS011;40423;53.176;6.002;2022-09-29T02:15:20;6.22;;;5.07;;
54517;SDS011;40423;53.176;6.002;2022-09-29T02:17:50;4.82;;;4.32;;
54517;SDS011;40423;53.176;6.002;2022-09-29T02:20:18;5.70;;;4.30;;
54517;SDS011;40423;53.176;6.002;2022-09-29T02:22:44;5.85;;;4.28;;
54517;SDS011;40423;53.176;6.002;2022-09-29T02:25:11;6.45;;;4.43;;
54517;SDS011;40423;53.176;6.002;2022-09-29T02:27:40;6.68;;;5.18;;
54517;SDS011;40423;53.176;6.002;2022-09-29T02:30:06;5.32;;;4.80;;
54517;SDS011;40423;53.176;6.002;2022-09-29T02:32:32;6.15;;;4.70;;
54517;SDS011;40423;53.176;6.002;2022-09-29T02:35:00;11.77;;;5.60;;
54517;SDS011;40423;53.176;6.002;2022-09-29T02:51:09;17.48;;;6.57;;
54517;SDS011;40423;53.176;6.002;2022-09-29T03:01:51;10.77;;;6.93;;
54517;SDS011;40423;53.176;6.002;2022-09-29T03:04:19;5.07;;;4.22;;
54517;SDS011;40423;53.176;6.002;2022-09-29T03:06:46;5.30;;;4.40;;
54517;SDS011;40423;53.176;6.002;2022-09-29T03:09:12;5.93;;;4.53;;
54517;SDS011;40423;53.176;6.002;2022-09-29T03:11:38;5.10;;;4.47;;
54517;SDS011;40423;53.176;6.002;2022-09-29T03:14:03;19.52;;;6.75;;
54517;SDS011;40423;53.176;6.002;2022-09-29T03:16:30;8.63;;;4.40;;
54517;SDS011;40423;53.176;6.002;2022-09-29T03:18:57;12.32;;;4.65;;
54517;SDS011;40423;53.176;6.002;2022-09-29T03:21:23;5.85;;;3.58;;
54517;SDS011;40423;53.176;6.002;2022-09-29T03:23:48;5.47;;;4.45;;
54517;SDS011;40423;53.176;6.002;2022-09-29T03:26:14;8.45;;;4.30;;
54517;SDS011;40423;53.176;6.002;2022-09-29T03:28:40;4.78;;;4.15;;
54517;SDS011;40423;53.176;6.002;2022-09-29T03:31:07;13.68;;;4.53;;
54517;SDS011;40423;53.176;6.002;2022-09-29T03:33:37;11.25;;;5.13;;
54517;SDS011;40423;53.176;6.002;2022-09-29T03:36:04;18.45;;;5.88;;
54517;SDS011;40423;53.176;6.002;2022-09-29T03:38:31;16.00;;;5.20;;
54517;SDS011;40423;53.176;6.002;2022-09-29T03:40:57;7.75;;;4.68;;
54517;SDS011;40423;53.176;6.002;2022-09-29T03:43:23;9.60;;;5.28;;
54517;SDS011;40423;53.176;6.002;2022-09-29T03:45:49;12.20;;;5.78;;
54517;SDS011;40423;53.176;6.002;2022-09-29T03:48:17;4.28;;;3.70;;
54517;SDS011;40423;53.176;6.002;2022-09-29T03:50:43;8.38;;;3.95;;
54517;SDS011;40423;53.176;6.002;2022-09-29T03:53:10;4.53;;;4.13;;
54517;SDS011;40423;53.176;6.002;2022-09-29T03:55:36;15.45;;;5.75;;
54517;SDS011;40423;53.176;6.002;2022-09-29T03:58:02;4.85;;;3.95;;
54517;SDS011;40423;53.176;6.002;2022-09-29T04:00:28;5.53;;;4.70;;
54517;SDS011;40423;53.176;6.002;2022-09-29T04:02:54;5.50;;;4.28;;
54517;SDS011;40423;53.176;6.002;2022-09-29T04:05:20;5.93;;;4.47;;
54517;SDS011;40423;53.176;6.002;2022-09-29T04:07:46;5.22;;;4.72;;
54517;SDS011;40423;53.176;6.002;2022-09-29T04:10:11;6.68;;;5.45;;
54517;SDS011;40423;53.176;6.002;2022-09-29T04:12:38;7.18;;;5.43;;
54517;SDS011;40423;53.176;6.002;2022-09-29T04:15:03;5.72;;;5.10;;
54517;SDS011;40423;53.176;6.002;2022-09-29T04:17:30;6.55;;;5.70;;
54517;SDS011;40423;53.176;6.002;2022-09-29T04:19:56;7.80;;;6.20;;
54517;SDS011;40423;53.176;6.002;2022-09-29T04:22:21;6.72;;;6.03;;
54517;SDS011;40423;53.176;6.002;2022-09-29T04:24:47;8.52;;;6.38;;
54517;SDS011;40423;53.176;6.002;2022-09-29T04:27:13;7.18;;;5.97;;
54517;SDS011;40423;53.176;6.002;2022-09-29T04:29:40;8.48;;;5.88;;
54517;SDS011;40423;53.176;6.002;2022-09-29T04:32:05;7.88;;;6.68;;
54517;SDS011;40423;53.176;6.002;2022-09-29T04:34:31;8.60;;;6.75;;
54517;SDS011;40423;53.176;6.002;2022-09-29T04:36:58;8.95;;;7.10;;
54517;SDS011;40423;53.176;6.002;2022-09-29T04:39:24;11.13;;;5.75;;
54517;SDS011;40423;53.176;6.002;2022-09-29T04:41:49;14.40;;;8.25;;
54517;SDS011;40423;53.176;6.002;2022-09-29T04:44:15;8.57;;;6.97;;
54517;SDS011;40423;53.176;6.002;2022-09-29T04:46:44;9.88;;;7.60;;
54517;SDS011;40423;53.176;6.002;2022-09-29T04:49:10;15.93;;;9.90;;
54517;SDS011;40423;53.176;6.002;2022-09-29T04:51:35;8.90;;;7.35;;
54517;SDS011;40423;53.176;6.002;2022-09-29T04:54:01;12.68;;;7.15;;
54517;SDS011;40423;53.176;6.002;2022-09-29T04:56:27;9.25;;;6.80;;
54517;SDS011;40423;53.176;6.002;2022-09-29T04:58:56;11.18;;;8.35;;
54517;SDS011;40423;53.176;6.002;2022-09-29T05:01:22;17.42;;;8.95;;
54517;SDS011;40423;53.176;6.002;2022-09-29T05:03:48;64.63;;;11.88;;
54517;SDS011;40423;53.176;6.002;2022-09-29T05:06:14;24.38;;;8.90;;
54517;SDS011;40423;53.176;6.002;2022-09-29T05:08:41;10.43;;;7.22;;
54517;SDS011;40423;53.176;6.002;2022-09-29T05:11:07;14.32;;;8.27;;
54517;SDS011;40423;53.176;6.002;2022-09-29T05:13:34;28.48;;;8.20;;
54517;SDS011;40423;53.176;6.002;2022-09-29T05:20:00;28.33;;;8.52;;
54517;SDS011;40423;53.176;6.002;2022-09-29T05:22:26;14.82;;;7.70;;
54517;SDS011;40423;53.176;6.002;2022-09-29T05:24:52;16.20;;;8.30;;
54517;SDS011;40423;53.176;6.002;2022-09-29T05:27:18;14.68;;;8.02;;
54517;SDS011;40423;53.176;6.002;2022-09-29T05:29:44;17.60;;;9.05;;
54517;SDS011;40423;53.176;6.002;2022-09-29T05:32:10;14.85;;;8.32;;
54517;SDS011;40423;53.176;6.002;2022-09-29T05:34:36;8.57;;;7.43;;
54517;SDS011;40423;53.176;6.002;2022-09-29T05:37:02;7.35;;;6.55;;
54517;SDS011;40423;53.176;6.002;2022-09-29T05:39:28;11.23;;;9.30;;
54517;SDS011;40423;53.176;6.002;2022-09-29T05:41:58;11.80;;;7.60;;
54517;SDS011;40423;53.176;6.002;2022-09-29T05:44:24;10.98;;;7.45;;
54517;SDS011;40423;53.176;6.002;2022-09-29T05:46:50;10.75;;;9.30;;
54517;SDS011;40423;53.176;6.002;2022-09-29T05:49:16;9.82;;;7.80;;
54517;SDS011;40423;53.176;6.002;2022-09-29T05:51:43;9.50;;;7.45;;
54517;SDS011;40423;53.176;6.002;2022-09-29T05:54:09;10.88;;;9.10;;
54517;SDS011;40423;53.176;6.002;2022-09-29T05:56:35;8.35;;;7.18;;
54517;SDS011;40423;53.176;6.002;2022-09-29T05:59:01;9.70;;;7.93;;
54517;SDS011;40423;53.176;6.002;2022-09-29T06:01:27;8.65;;;7.53;;
54517;SDS011;40423;53.176;6.002;2022-09-29T06:03:53;10.23;;;8.35;;
54517;SDS011;40423;53.176;6.002;2022-09-29T06:06:20;9.57;;;8.10;;
54517;SDS011;40423;53.176;6.002;2022-09-29T06:08:48;10.15;;;8.32;;
54517;SDS011;40423;53.176;6.002;2022-09-29T06:11:15;9.70;;;7.55;;
54517;SDS011;40423;53.176;6.002;2022-09-29T06:13:44;11.95;;;8.20;;
54517;SDS011;40423;53.176;6.002;2022-09-29T06:16:11;9.68;;;8.02;;
54517;SDS011;40423;53.176;6.002;2022-09-29T06:18:37;9.88;;;8.18;;
54517;SDS011;40423;53.176;6.002;2022-09-29T06:21:07;7.88;;;6.20;;
54517;SDS011;40423;53.176;6.002;2022-09-29T06:23:38;8.73;;;6.63;;
54517;SDS011;40423;53.176;6.002;2022-09-29T06:26:05;8.68;;;7.65;;
54517;SDS011;40423;53.176;6.002;2022-09-29T06:28:32;7.55;;;6.75;;
54517;SDS011;40423;53.176;6.002;2022-09-29T06:30:59;7.40;;;6.70;;
54517;SDS011;40423;53.176;6.002;2022-09-29T06:33:27;11.20;;;7.78;;
54517;SDS011;40423;53.176;6.002;2022-09-29T06:35:54;10.65;;;8.32;;
54517;SDS011;40423;53.176;6.002;2022-09-29T06:38:39;12.82;;;9.05;;
54517;SDS011;40423;53.176;6.002;2022-09-29T06:41:06;8.25;;;7.22;;
54517;SDS011;40423;53.176;6.002;2022-09-29T06:43:32;11.50;;;8.20;;
54517;SDS011;40423;53.176;6.002;2022-09-29T06:45:59;25.90;;;10.15;;
54517;SDS011;40423;53.176;6.002;2022-09-29T06:48:24;18.48;;;9.02;;
54517;SDS011;40423;53.176;6.002;2022-09-29T06:50:50;12.00;;;9.10;;
54517;SDS011;40423;53.176;6.002;2022-09-29T06:53:16;9.52;;;7.82;;
54517;SDS011;40423;53.176;6.002;2022-09-29T06:55:42;12.60;;;8.63;;
54517;SDS011;40423;53.176;6.002;2022-09-29T06:58:08;8.43;;;7.57;;
54517;SDS011;40423;53.176;6.002;2022-09-29T07:00:34;10.10;;;8.45;;
54517;SDS011;40423;53.176;6.002;2022-09-29T07:03:02;10.43;;;9.38;;
54517;SDS011;40423;53.176;6.002;2022-09-29T07:05:27;25.52;;;11.98;;
54517;SDS011;40423;53.176;6.002;2022-09-29T07:07:53;24.35;;;11.57;;
54517;SDS011;40423;53.176;6.002;2022-09-29T07:10:19;21.15;;;12.10;;
54517;SDS011;40423;53.176;6.002;2022-09-29T07:12:45;12.75;;;9.60;;
54517;SDS011;40423;53.176;6.002;2022-09-29T07:15:11;12.63;;;9.52;;
54517;SDS011;40423;53.176;6.002;2022-09-29T07:17:38;15.00;;;10.18;;
54517;SDS011;40423;53.176;6.002;2022-09-29T07:20:04;11.13;;;9.60;;
54517;SDS011;40423;53.176;6.002;2022-09-29T07:22:31;11.93;;;10.40;;
54517;SDS011;40423;53.176;6.002;2022-09-29T07:24:57;12.10;;;10.35;;
54517;SDS011;40423;53.176;6.002;2022-09-29T07:27:22;11.52;;;9.77;;
54517;SDS011;40423;53.176;6.002;2022-09-29T07:29:51;15.52;;;11.98;;
54517;SDS011;40423;53.176;6.002;2022-09-29T07:32:17;20.70;;;12.80;;
54517;SDS011;40423;53.176;6.002;2022-09-29T07:34:44;20.33;;;12.55;;
54517;SDS011;40423;53.176;6.002;2022-09-29T07:37:12;18.55;;;14.07;;
54517;SDS011;40423;53.176;6.002;2022-09-29T07:39:38;21.88;;;14.13;;
54517;SDS011;40423;53.176;6.002;2022-09-29T07:42:04;23.20;;;16.67;;
54517;SDS011;40423;53.176;6.002;2022-09-29T07:44:29;23.63;;;17.10;;
54517;SDS011;40423;53.176;6.002;2022-09-29T07:46:56;28.08;;;17.88;;
54517;SDS011;40423;53.176;6.002;2022-09-29T07:49:22;24.50;;;18.42;;
54517;SDS011;40423;53.176;6.002;2022-09-29T07:51:48;25.73;;;18.27;;
54517;SDS011;40423;53.176;6.002;2022-09-29T07:54:14;25.13;;;19.80;;
54517;SDS011;40423;53.176;6.002;2022-09-29T07:56:40;21.98;;;18.10;;
54517;SDS011;40423;53.176;6.002;2022-09-29T07:59:06;21.83;;;17.17;;
54517;SDS011;40423;53.176;6.002;2022-09-29T08:01:34;22.35;;;17.83;;
54517;SDS011;40423;53.176;6.002;2022-09-29T08:03:59;20.52;;;16.65;;
54517;SDS011;40423;53.176;6.002;2022-09-29T08:06:26;23.10;;;17.60;;
54517;SDS011;40423;53.176;6.002;2022-09-29T08:08:52;22.50;;;16.95;;
54517;SDS011;40423;53.176;6.002;2022-09-29T08:11:19;19.45;;;15.73;;
54517;SDS011;40423;53.176;6.002;2022-09-29T08:13:46;19.98;;;16.30;;
54517;SDS011;40423;53.176;6.002;2022-09-29T08:16:12;20.35;;;16.30;;
54517;SDS011;40423;53.176;6.002;2022-09-29T08:18:39;21.30;;;16.15;;
54517;SDS011;40423;53.176;6.002;2022-09-29T08:21:05;21.77;;;17.48;;
54517;SDS011;40423;53.176;6.002;2022-09-29T08:23:35;20.77;;;16.35;;
54517;SDS011;40423;53.176;6.002;2022-09-29T08:26:03;18.95;;;15.65;;
54517;SDS011;40423;53.176;6.002;2022-09-29T08:28:32;20.33;;;16.73;;
54517;SDS011;40423;53.176;6.002;2022-09-29T08:31:05;21.42;;;17.95;;
54517;SDS011;40423;53.176;6.002;2022-09-29T08:33:33;22.95;;;17.77;;
54517;SDS011;40423;53.176;6.002;2022-09-29T08:36:00;21.63;;;17.45;;
54517;SDS011;40423;53.176;6.002;2022-09-29T08:38:31;23.52;;;16.02;;
54517;SDS011;40423;53.176;6.002;2022-09-29T08:41:01;20.05;;;16.10;;
54517;SDS011;40423;53.176;6.002;2022-09-29T08:43:33;18.75;;;14.77;;
54517;SDS011;40423;53.176;6.002;2022-09-29T08:46:05;20.15;;;15.77;;
54517;SDS011;40423;53.176;6.002;2022-09-29T08:48:33;19.90;;;15.10;;
54517;SDS011;40423;53.176;6.002;2022-09-29T08:51:04;20.95;;;13.63;;
54517;SDS011;40423;53.176;6.002;2022-09-29T08:53:37;20.27;;;15.93;;
54517;SDS011;40423;53.176;6.002;2022-09-29T08:56:12;19.35;;;14.82;;
54517;SDS011;40423;53.176;6.002;2022-09-29T08:58:40;17.70;;;13.75;;
54517;SDS011;40423;53.176;6.002;2022-09-29T09:06:19;17.58;;;12.60;;
54517;SDS011;40423;53.176;6.002;2022-09-29T09:09:01;18.88;;;14.52;;
54517;SDS011;40423;53.176;6.002;2022-09-29T09:17:26;14.93;;;11.55;;
54517;SDS011;40423;53.176;6.002;2022-09-29T09:25:28;11.10;;;8.57;;
54517;SDS011;40423;53.176;6.002;2022-09-29T09:28:10;12.60;;;8.23;;
54517;SDS011;40423;53.176;6.002;2022-09-29T09:31:04;6.22;;;5.28;;
54517;SDS011;40423;53.176;6.002;2022-09-29T09:33:37;6.15;;;5.13;;
54517;SDS011;40423;53.176;6.002;2022-09-29T09:41:38;8.15;;;5.40;;
54517;SDS011;40423;53.176;6.002;2022-09-29T09:44:12;6.55;;;4.90;;
54517;SDS011;40423;53.176;6.002;2022-09-29T09:46:48;6.25;;;5.30;;
54517;SDS011;40423;53.176;6.002;2022-09-29T09:49:36;7.03;;;4.70;;
54517;SDS011;40423;53.176;6.002;2022-09-29T09:52:16;6.95;;;5.18;;
54517;SDS011;40423;53.176;6.002;2022-09-29T09:54:48;7.35;;;5.85;;
54517;SDS011;40423;53.176;6.002;2022-09-29T10:00:22;9.23;;;6.77;;
54517;SDS011;40423;53.176;6.002;2022-09-29T10:02:53;7.00;;;5.50;;
54517;SDS011;40423;53.176;6.002;2022-09-29T10:05:22;5.22;;;4.05;;
54517;SDS011;40423;53.176;6.002;2022-09-29T10:08:00;6.07;;;3.67;;
54517;SDS011;40423;53.176;6.002;2022-09-29T10:10:28;5.03;;;3.38;;
54517;SDS011;40423;53.176;6.002;2022-09-29T10:15:21;4.13;;;2.83;;
54517;SDS011;40423;53.176;6.002;2022-09-29T10:17:56;4.00;;;2.53;;
54517;SDS011;40423;53.176;6.002;2022-09-29T10:20:45;4.63;;;2.80;;
54517;SDS011;40423;53.176;6.002;2022-09-29T10:25:49;3.85;;;3.08;;
54517;SDS011;40423;53.176;6.002;2022-09-29T10:28:21;5.32;;;3.42;;
54517;SDS011;40423;53.176;6.002;2022-09-29T10:30:49;5.15;;;2.90;;
54517;SDS011;40423;53.176;6.002;2022-09-29T10:33:18;5.43;;;3.20;;
54517;SDS011;40423;53.176;6.002;2022-09-29T10:35:47;5.53;;;3.60;;
54517;SDS011;40423;53.176;6.002;2022-09-29T10:38:25;4.18;;;3.08;;
54517;SDS011;40423;53.176;6.002;2022-09-29T10:40:58;5.43;;;3.00;;
54517;SDS011;40423;53.176;6.002;2022-09-29T10:43:38;4.60;;;3.05;;
54517;SDS011;40423;53.176;6.002;2022-09-29T10:51:40;5.40;;;3.15;;
54517;SDS011;40423;53.176;6.002;2022-09-29T10:54:14;4.13;;;3.22;;
54517;SDS011;40423;53.176;6.002;2022-09-29T10:56:47;4.68;;;2.50;;
54517;SDS011;40423;53.176;6.002;2022-09-29T10:59:14;3.83;;;1.95;;
54517;SDS011;40423;53.176;6.002;2022-09-29T11:01:45;2.25;;;1.52;;
54517;SDS011;40423;53.176;6.002;2022-09-29T11:04:16;3.83;;;2.10;;
54517;SDS011;40423;53.176;6.002;2022-09-29T11:06:53;3.28;;;2.45;;
54517;SDS011;40423;53.176;6.002;2022-09-29T11:11:52;5.18;;;2.85;;
54517;SDS011;40423;53.176;6.002;2022-09-29T11:14:26;4.18;;;3.03;;
54517;SDS011;40423;53.176;6.002;2022-09-29T11:17:01;5.13;;;3.10;;
54517;SDS011;40423;53.176;6.002;2022-09-29T11:19:44;3.23;;;2.03;;
54517;SDS011;40423;53.176;6.002;2022-09-29T11:22:23;3.72;;;2.60;;
54517;SDS011;40423;53.176;6.002;2022-09-29T11:30:20;2.92;;;1.60;;
54517;SDS011;40423;53.176;6.002;2022-09-29T11:35:49;2.75;;;1.90;;
54517;SDS011;40423;53.176;6.002;2022-09-29T11:43:54;22.00;;;11.00;;
54517;SDS011;40423;53.176;6.002;2022-09-29T12:03:40;2.30;;;1.30;;
54517;SDS011;40423;53.176;6.002;2022-09-29T12:06:35;1.83;;;1.30;;
54517;SDS011;40423;53.176;6.002;2022-09-29T12:17:31;2.42;;;1.10;;
54517;SDS011;40423;53.176;6.002;2022-09-29T12:20:01;1.27;;;0.70;;
54517;SDS011;40423;53.176;6.002;2022-09-29T12:22:30;1.25;;;0.77;;
54517;SDS011;40423;53.176;6.002;2022-09-29T12:24:57;1.58;;;0.93;;
54517;SDS011;40423;53.176;6.002;2022-09-29T12:30:02;2.50;;;1.15;;
54517;SDS011;40423;53.176;6.002;2022-09-29T12:32:51;2.97;;;1.17;;
54517;SDS011;40423;53.176;6.002;2022-09-29T12:43:50;3.10;;;1.10;;
54517;SDS011;40423;53.176;6.002;2022-09-29T12:46:26;3.30;;;1.00;;
54517;SDS011;40423;53.176;6.002;2022-09-29T12:51:49;2.33;;;1.25;;
54517;SDS011;40423;53.176;6.002;2022-09-29T12:57:16;2.10;;;1.10;;
54517;SDS011;40423;53.176;6.002;2022-09-29T13:13:45;2.85;;;0.98;;
54517;SDS011;40423;53.176;6.002;2022-09-29T13:21:49;1.85;;;1.20;;
54517;SDS011;40423;53.176;6.002;2022-09-29T13:24:43;1.92;;;0.90;;
54517;SDS011;40423;53.176;6.002;2022-09-29T13:29:52;1.95;;;1.10;;
54517;SDS011;40423;53.176;6.002;2022-09-29T13:32:28;2.80;;;1.00;;
54517;SDS011;40423;53.176;6.002;2022-09-29T13:34:57;2.22;;;1.00;;
54517;SDS011;40423;53.176;6.002;2022-09-29T13:37:26;1.92;;;0.80;;
54517;SDS011;40423;53.176;6.002;2022-09-29T13:40:06;1.38;;;0.82;;
54517;SDS011;40423;53.176;6.002;2022-09-29T13:42:43;1.83;;;0.90;;
54517;SDS011;40423;53.176;6.002;2022-09-29T13:47:49;1.67;;;1.08;;
54517;SDS011;40423;53.176;6.002;2022-09-29T14:01:07;1.30;;;0.40;;
54517;SDS011;40423;53.176;6.002;2022-09-29T14:03:50;1.55;;;0.57;;
54517;SDS011;40423;53.176;6.002;2022-09-29T14:06:22;1.42;;;0.70;;
54517;SDS011;40423;53.176;6.002;2022-09-29T14:08:58;0.73;;;0.50;;
54517;SDS011;40423;53.176;6.002;2022-09-29T14:11:47;0.90;;;0.50;;
54517;SDS011;40423;53.176;6.002;2022-09-29T14:14:22;0.75;;;0.60;;
54517;SDS011;40423;53.176;6.002;2022-09-29T14:22:05;1.35;;;0.50;;
54517;SDS011;40423;53.176;6.002;2022-09-29T14:33:17;2.17;;;0.50;;
54517;SDS011;40423;53.176;6.002;2022-09-29T14:38:35;0.57;;;0.40;;
54517;SDS011;40423;53.176;6.002;2022-09-29T14:41:21;2.25;;;0.30;;
54517;SDS011;40423;53.176;6.002;2022-09-29T14:43:55;0.90;;;0.40;;
54517;SDS011;40423;53.176;6.002;2022-09-29T14:55:07;1.45;;;0.75;;
54517;SDS011;40423;53.176;6.002;2022-09-29T14:57:59;1.85;;;0.60;;
54517;SDS011;40423;53.176;6.002;2022-09-29T15:03:46;0.77;;;0.30;;
54517;SDS011;40423;53.176;6.002;2022-09-29T15:09:23;2.00;;;0.30;;
54517;SDS011;40423;53.176;6.002;2022-09-29T15:11:56;3.60;;;0.70;;
54517;SDS011;40423;53.176;6.002;2022-09-29T15:14:27;1.83;;;0.50;;
54517;SDS011;40423;53.176;6.002;2022-09-29T15:28:42;1.75;;;0.50;;
54517;SDS011;40423;53.176;6.002;2022-09-29T15:30:58;3.05;;;1.02;;
54517;SDS011;40423;53.176;6.002;2022-09-29T15:33:33;2.78;;;0.60;;
54517;SDS011;40423;53.176;6.002;2022-09-29T15:36:21;3.08;;;0.63;;
54517;SDS011;40423;53.176;6.002;2022-09-29T15:38:53;0.95;;;0.50;;
54517;SDS011;40423;53.176;6.002;2022-09-29T15:44:14;2.50;;;0.50;;
54517;SDS011;40423;53.176;6.002;2022-09-29T15:46:49;1.83;;;0.43;;
54517;SDS011;40423;53.176;6.002;2022-09-29T15:49:17;1.27;;;0.40;;
54517;SDS011;40423;53.176;6.002;2022-09-29T15:52:32;1.25;;;0.55;;
54517;SDS011;40423;53.176;6.002;2022-09-29T15:54:38;1.52;;;0.75;;
54517;SDS011;40423;53.176;6.002;2022-09-29T15:57:54;0.82;;;0.40;;
54517;SDS011;40423;53.176;6.002;2022-09-29T16:05:36;0.68;;;0.35;;
54517;SDS011;40423;53.176;6.002;2022-09-29T16:08:06;2.40;;;0.50;;
54517;SDS011;40423;53.176;6.002;2022-09-29T16:10:53;0.85;;;0.40;;
54517;SDS011;40423;53.176;6.002;2022-09-29T16:13:31;1.05;;;0.40;;
54517;SDS011;40423;53.176;6.002;2022-09-29T16:16:01;1.60;;;0.60;;
54517;SDS011;40423;53.176;6.002;2022-09-29T16:21:05;3.30;;;0.40;;
54517;SDS011;40423;53.176;6.002;2022-09-29T16:26:42;2.38;;;0.55;;
54517;SDS011;40423;53.176;6.002;2022-09-29T16:29:32;2.58;;;0.60;;
54517;SDS011;40423;53.176;6.002;2022-09-29T16:31:59;3.20;;;0.40;;
54517;SDS011;40423;53.176;6.002;2022-09-29T16:34:50;5.28;;;0.70;;
54517;SDS011;40423;53.176;6.002;2022-09-29T16:37:18;1.50;;;0.40;;
54517;SDS011;40423;53.176;6.002;2022-09-29T16:39:45;1.05;;;0.52;;
54517;SDS011;40423;53.176;6.002;2022-09-29T16:42:19;2.17;;;0.90;;
54517;SDS011;40423;53.176;6.002;2022-09-29T16:44:49;3.13;;;0.77;;
54517;SDS011;40423;53.176;6.002;2022-09-29T16:49:59;1.95;;;0.60;;
54517;SDS011;40423;53.176;6.002;2022-09-29T16:52:42;1.02;;;0.60;;
54517;SDS011;40423;53.176;6.002;2022-09-29T16:55:17;1.05;;;0.50;;
54517;SDS011;40423;53.176;6.002;2022-09-29T16:57:55;0.75;;;0.40;;
54517;SDS011;40423;53.176;6.002;2022-09-29T17:00:23;2.22;;;0.43;;
54517;SDS011;40423;53.176;6.002;2022-09-29T17:02:50;0.55;;;0.40;;
54517;SDS011;40423;53.176;6.002;2022-09-29T17:05:16;0.43;;;0.20;;
54517;SDS011;40423;53.176;6.002;2022-09-29T17:07:42;0.82;;;0.30;;
54517;SDS011;40423;53.176;6.002;2022-09-29T17:10:13;0.70;;;0.40;;
54517;SDS011;40423;53.176;6.002;2022-09-29T17:12:44;0.40;;;0.40;;
54517;SDS011;40423;53.176;6.002;2022-09-29T17:15:14;1.15;;;0.40;;
54517;SDS011;40423;53.176;6.002;2022-09-29T17:17:41;0.65;;;0.35;;
54517;SDS011;40423;53.176;6.002;2022-09-29T17:20:13;0.75;;;0.68;;
54517;SDS011;40423;53.176;6.002;2022-09-29T17:22:42;1.35;;;0.93;;
54517;SDS011;40423;53.176;6.002;2022-09-29T17:25:09;1.13;;;0.57;;
54517;SDS011;40423;53.176;6.002;2022-09-29T17:27:35;0.50;;;0.30;;
54517;SDS011;40423;53.176;6.002;2022-09-29T17:30:21;1.15;;;0.63;;
54517;SDS011;40423;53.176;6.002;2022-09-29T17:32:48;1.92;;;0.55;;
54517;SDS011;40423;53.176;6.002;2022-09-29T17:35:17;0.93;;;0.40;;
54517;SDS011;40423;53.176;6.002;2022-09-29T17:37:45;1.15;;;0.60;;
54517;SDS011;40423;53.176;6.002;2022-09-29T17:40:23;1.42;;;0.70;;
54517;SDS011;40423;53.176;6.002;2022-09-29T17:43:01;1.75;;;0.68;;
54517;SDS011;40423;53.176;6.002;2022-09-29T17:45:27;2.58;;;0.70;;
54517;SDS011;40423;53.176;6.002;2022-09-29T17:47:55;3.15;;;1.20;;
54517;SDS011;40423;53.176;6.002;2022-09-29T17:50:25;5.47;;;1.15;;
54517;SDS011;40423;53.176;6.002;2022-09-29T17:52:54;2.45;;;1.40;;
54517;SDS011;40423;53.176;6.002;2022-09-29T17:55:20;3.30;;;1.58;;
54517;SDS011;40423;53.176;6.002;2022-09-29T17:57:47;2.35;;;1.20;;
54517;SDS011;40423;53.176;6.002;2022-09-29T18:00:15;2.58;;;1.17;;
54517;SDS011;40423;53.176;6.002;2022-09-29T18:02:45;2.15;;;1.38;;
54517;SDS011;40423;53.176;6.002;2022-09-29T18:05:11;3.38;;;1.23;;
54517;SDS011;40423;53.176;6.002;2022-09-29T18:07:37;2.70;;;1.60;;
54517;SDS011;40423;53.176;6.002;2022-09-29T18:10:24;3.08;;;1.67;;
54517;SDS011;40423;53.176;6.002;2022-09-29T18:12:54;3.90;;;1.50;;
54517;SDS011;40423;53.176;6.002;2022-09-29T18:15:20;2.72;;;1.58;;
54517;SDS011;40423;53.176;6.002;2022-09-29T18:17:47;1.50;;;1.10;;
54517;SDS011;40423;53.176;6.002;2022-09-29T18:20:17;2.63;;;1.23;;
54517;SDS011;40423;53.176;6.002;2022-09-29T18:22:44;3.47;;;1.30;;
54517;SDS011;40423;53.176;6.002;2022-09-29T18:25:15;4.10;;;2.00;;
54517;SDS011;40423;53.176;6.002;2022-09-29T18:27:46;2.22;;;1.60;;
54517;SDS011;40423;53.176;6.002;2022-09-29T18:30:15;3.67;;;1.25;;
54517;SDS011;40423;53.176;6.002;2022-09-29T18:32:46;2.03;;;1.42;;
54517;SDS011;40423;53.176;6.002;2022-09-29T18:35:25;1.88;;;1.50;;
54517;SDS011;40423;53.176;6.002;2022-09-29T18:37:52;1.70;;;1.27;;
54517;SDS011;40423;53.176;6.002;2022-09-29T18:40:18;2.67;;;1.50;;
54517;SDS011;40423;53.176;6.002;2022-09-29T18:42:46;4.13;;;2.60;;
54517;SDS011;40423;53.176;6.002;2022-09-29T18:45:17;4.32;;;3.40;;
54517;SDS011;40423;53.176;6.002;2022-09-29T18:47:47;5.97;;;3.15;;
54517;SDS011;40423;53.176;6.002;2022-09-29T18:50:15;4.43;;;2.72;;
54517;SDS011;40423;53.176;6.002;2022-09-29T18:52:47;6.05;;;3.00;;
54517;SDS011;40423;53.176;6.002;2022-09-29T18:55:15;3.30;;;2.53;;